Ana Sayfa
METAR-TAF:

METAR-TAF

Havaalanları :

Fairfield County Airport

Lancaster, Ohio, Amerika Birleşik Devletleri

Enlem: 39-45-26N, Boylam: 082-39-48W, yükseklik: 264 m

Güncel hava durumu gözlemi

Rapor saat 21:53 UTC de 1 saat ve 3 dakika önce yapıldı.
Sakin rüzgar
Sıcaklık 14°C
Nem 63%
Basınç 1017 hPa
Görüş mesafesi: 16.1 km
5000 ft yükseklikte çok bulutlu

METAR: KLHQ 232153Z AUTO 00000KT 10SM OVC050 14/07 A3002 RMK AO2 SLP164 T01390072

Saat: 18:56 (22:56 UTC)


TAF: eksik

4.000'den fazla havaalanı için hava durumu gözlemleri ve tahminleri (METAR ve TAF raporları).

Kullanılabilir istasyonlar harita üzerinde sarı ve kırmızı noktalarla gösterilir.

İstasyonun adını görmek için fareyi noktanın üzerinde gezdirin.

Sonrasında hava gözlem ve tahminlerini görmek için tıklayın.

Haritayı değiştirmek için: yaklaştırmak için siyah artı işaretli yeşil düğmeye ve uzaklaştırmak için de eksi işaretli düğmeye hızla tıklayın; bitişik haritalar için yeşil okları kullanın.


METAR-TAF: